Time;durP1;ratioP1;P1;durP2;ratioP2;P2;SDS_P1;SDS_P2;PMS_P1;PMS_P2;Temp;Humidity;BMP_temperature;BMP_pressure;BME280_temperature;BME280_humidity;BME280_pressure;Samples;Min_cycle;Max_cycle;Signal;HPM_P1;HPM_P2
2022/09/21 00:01:29;;;;;;;0.98;0.20;;;11.00;86.70;;;;;;4871138;29;20063;-87
2022/09/21 00:04:00;;;;;;;0.68;0.10;;;11.00;86.70;;;;;;4876272;29;20076;-86
2022/09/21 00:06:31;;;;;;;0.25;0.10;;;11.00;86.80;;;;;;4902023;29;20044;-86
2022/09/21 00:08:59;;;;;;;0.00;0.00;;;10.90;86.80;;;;;;4886792;29;20080;-87
2022/09/21 00:11:28;;;;;;;0.52;0.10;;;11.00;87.00;;;;;;4909296;29;20055;-86
2022/09/21 00:13:59;;;;;;;0.75;0.10;;;10.90;87.00;;;;;;4899109;29;20100;-87
2022/09/21 00:16:28;;;;;;;1.48;0.20;;;10.90;87.00;;;;;;4886694;29;20051;-86
2022/09/21 00:18:55;;;;;;;0.60;0.10;;;10.90;87.00;;;;;;4883699;29;20043;-86
2022/09/21 00:21:23;;;;;;;1.38;0.30;;;10.90;87.10;;;;;;4868058;29;20147;-86
2022/09/21 00:23:50;;;;;;;1.42;0.17;;;10.90;87.10;;;;;;4869586;29;20083;-86
2022/09/21 00:26:24;;;;;;;2.13;0.30;;;11.00;87.70;;;;;;4882882;29;20052;-86
2022/09/21 00:28:56;;;;;;;0.73;0.13;;;11.00;87.20;;;;;;4890249;29;20048;-86
2022/09/21 00:31:24;;;;;;;0.93;0.20;;;11.00;87.30;;;;;;4885537;29;20072;-86
2022/09/21 00:33:52;;;;;;;1.40;0.30;;;10.90;87.30;;;;;;4886876;29;20075;-86
2022/09/21 00:36:22;;;;;;;0.40;0.10;;;11.00;87.40;;;;;;4880212;29;20052;-86
2022/09/21 00:38:52;;;;;;;1.40;0.30;;;11.00;87.40;;;;;;4883954;29;20083;-85
2022/09/21 00:41:20;;;;;;;2.33;0.20;;;11.00;87.40;;;;;;4883540;29;20472;-86
2022/09/21 00:44:06;;;;;;;1.15;0.28;;;10.90;87.40;;;;;;4867430;29;20040;-86
2022/09/21 00:46:35;;;;;;;0.80;0.20;;;11.00;87.50;;;;;;4898068;29;20048;-87
2022/09/21 00:49:02;;;;;;;1.17;0.20;;;10.90;87.50;;;;;;4901441;29;20511;-87
2022/09/21 00:51:30;;;;;;;0.45;0.10;;;10.90;87.60;;;;;;4871471;29;20057;-87
2022/09/21 00:54:03;;;;;;;0.55;0.20;;;10.80;87.60;;;;;;4890959;29;20055;-86
2022/09/21 00:56:31;;;;;;;1.42;0.28;;;10.80;87.80;;;;;;4889271;29;20583;-87
2022/09/21 00:59:01;;;;;;;2.10;0.20;;;10.80;87.90;;;;;;4885471;29;20048;-87
2022/09/21 01:01:29;;;;;;;1.55;0.25;;;10.70;87.90;;;;;;4858034;29;20155;-86
2022/09/21 01:03:57;;;;;;;0.38;0.10;;;10.70;88.00;;;;;;4860739;29;20052;-86
2022/09/21 01:06:25;;;;;;;0.55;0.20;;;10.70;88.10;;;;;;4867457;29;20465;-86
2022/09/21 01:08:57;;;;;;;1.90;0.20;;;10.70;88.20;;;;;;4871799;29;20080;-86
2022/09/21 01:11:33;;;;;;;2.10;0.10;;;10.60;88.20;;;;;;4888082;29;20051;-87
2022/09/21 01:14:18;;;;;;;0.32;0.10;;;10.60;88.30;;;;;;4886459;29;20048;-86
2022/09/21 01:17:04;;;;;;;0.35;0.10;;;10.60;88.40;;;;;;4866776;29;20163;-86
2022/09/21 01:19:57;;;;;;;0.68;0.20;;;10.60;88.40;;;;;;4888217;29;20083;-88
2022/09/21 01:22:51;;;;;;;0.35;0.10;;;10.50;88.40;;;;;;4866718;29;20068;-86
2022/09/21 01:25:43;;;;;;;0.30;0.00;;;10.50;88.50;;;;;;4882313;29;20092;-87
2022/09/21 01:28:48;;;;;;;0.30;0.10;;;10.50;88.50;;;;;;4903933;29;20045;-86
2022/09/21 01:31:23;;;;;;;2.38;0.10;;;10.50;88.60;;;;;;4889177;29;20500;-87
2022/09/21 01:34:00;;;;;;;0.20;0.10;;;10.40;88.70;;;;;;4897283;29;20056;-87
2022/09/21 01:36:30;;;;;;;0.15;0.08;;;10.40;88.80;;;;;;4885582;29;20052;-87
2022/09/21 01:39:10;;;;;;;0.50;0.10;;;10.40;88.90;;;;;;4866758;29;20088;-86
2022/09/21 01:41:40;;;;;;;0.65;0.10;;;10.30;89.00;;;;;;4881888;29;20453;-86
2022/09/21 01:44:14;;;;;;;0.47;0.10;;;10.30;89.10;;;;;;4872897;29;20041;-87
2022/09/21 01:46:43;;;;;;;2.25;0.20;;;10.30;89.80;;;;;;4884262;29;20054;-87
2022/09/21 01:49:26;;;;;;;0.73;0.10;;;10.30;89.20;;;;;;4878780;29;20495;-86
2022/09/21 01:52:04;;;;;;;0.05;0.00;;;10.30;89.20;;;;;;4879115;29;20139;-87
2022/09/21 01:54:58;;;;;;;0.30;0.08;;;10.30;89.20;;;;;;4902417;29;20044;-87
2022/09/21 01:58:04;;;;;;;0.90;0.10;;;10.20;89.20;;;;;;4873431;29;20087;-87
2022/09/21 02:00:34;;;;;;;1.15;0.10;;;10.20;89.90;;;;;;4900512;29;20100;-85
2022/09/21 02:03:13;;;;;;;0.57;0.10;;;10.10;90.00;;;;;;4891986;29;20049;-86
2022/09/21 02:05:41;;;;;;;2.03;0.20;;;10.10;89.50;;;;;;4878348;29;20059;-85
2022/09/21 02:08:09;;;;;;;1.48;0.20;;;10.00;89.50;;;;;;4873734;29;20136;-86
2022/09/21 02:10:43;;;;;;;0.43;0.10;;;9.90;89.70;;;;;;4879980;29;20056;-86
2022/09/21 02:13:13;;;;;;;0.08;0.00;;;9.90;89.80;;;;;;4902669;29;20048;-86
2022/09/21 02:16:01;;;;;;;0.68;0.20;;;9.80;89.90;;;;;;4882046;29;20053;-87
2022/09/21 02:18:45;;;;;;;1.65;0.10;;;9.80;90.00;;;;;;4891824;29;20493;-86
2022/09/21 02:22:00;;;;;;;0.32;0.10;;;9.70;90.00;;;;;;4896966;29;20048;-85
2022/09/21 02:24:46;;;;;;;0.90;0.10;;;9.70;90.10;;;;;;4798987;29;20176;-86
2022/09/21 02:27:26;;;;;;;0.65;0.00;;;9.70;90.10;;;;;;4878921;29;20382;-86
2022/09/21 02:30:05;;;;;;;0.40;0.10;;;9.60;90.10;;;;;;4872718;29;20455;-85
2022/09/21 02:33:08;;;;;;;1.08;0.30;;;9.60;90.20;;;;;;4881953;29;20054;-87
2022/09/21 02:35:41;;;;;;;;;;;9.50;90.20;;;;;;4875971;29;20048;-86
2022/09/21 02:38:25;;;;;;;0.45;0.03;;;9.40;90.20;;;;;;4881883;29;19923;-87
2022/09/21 02:41:02;;;;;;;1.45;0.10;;;9.40;90.20;;;;;;4896433;29;20108;-86
2022/09/21 02:43:58;;;;;;;0.22;0.10;;;9.30;90.30;;;;;;4881646;29;20071;-86
2022/09/21 02:46:34;;;;;;;0.10;0.10;;;9.30;90.30;;;;;;4874138;29;20071;-86
2022/09/21 02:49:18;;;;;;;0.40;0.10;;;9.30;90.30;;;;;;4883974;29;20048;-86
2022/09/21 02:51:49;;;;;;;1.38;0.10;;;9.30;90.40;;;;;;4893341;29;20107;-86
2022/09/21 02:54:21;;;;;;;0.77;0.10;;;9.20;90.40;;;;;;4903059;29;20045;-86
2022/09/21 02:56:50;;;;;;;0.10;0.10;;;9.20;90.40;;;;;;4885633;29;20052;-86
2022/09/21 02:59:23;;;;;;;0.32;0.03;;;9.20;90.40;;;;;;4883379;29;20055;-85
2022/09/21 03:01:51;;;;;;;0.68;0.10;;;9.20;90.40;;;;;;4850433;29;20083;-86
2022/09/21 03:04:19;;;;;;;0.68;0.10;;;9.10;90.40;;;;;;4866683;29;20116;-86
2022/09/21 03:06:48;;;;;;;0.57;0.00;;;9.10;90.50;;;;;;4869635;29;20505;-85
2022/09/21 03:09:23;;;;;;;0.52;0.10;;;9.10;90.50;;;;;;4860358;29;20057;-85
2022/09/21 03:11:51;;;;;;;0.73;0.20;;;9.10;90.50;;;;;;4845821;29;20109;-85
2022/09/21 03:14:18;;;;;;;0.28;0.10;;;9.00;90.50;;;;;;4868640;29;20139;-85
2022/09/21 03:16:45;;;;;;;1.77;0.10;;;9.00;90.50;;;;;;4851740;29;20060;-85
2022/09/21 03:19:12;;;;;;;1.13;0.20;;;9.00;90.50;;;;;;4854757;29;20044;-85
2022/09/21 03:21:40;;;;;;;0.38;0.10;;;9.00;90.60;;;;;;4884989;29;20049;-85
2022/09/21 03:24:11;;;;;;;0.40;0.00;;;9.00;90.60;;;;;;4883833;29;20044;-86
2022/09/21 03:26:41;;;;;;;0.65;0.10;;;8.90;90.60;;;;;;4836019;29;20089;-84
2022/09/21 03:29:08;;;;;;;0.20;0.00;;;8.90;90.60;;;;;;4851063;29;20101;-87
2022/09/21 03:31:35;;;;;;;0.82;0.08;;;8.90;90.60;;;;;;4866903;29;20056;-85
2022/09/21 03:34:05;;;;;;;0.15;0.00;;;8.90;90.60;;;;;;4848507;29;20583;-85
2022/09/21 03:36:32;;;;;;;0.20;0.00;;;8.80;90.60;;;;;;4869218;29;20561;-86
2022/09/21 03:38:59;;;;;;;0.30;0.15;;;8.80;90.60;;;;;;4853402;29;20498;-86
2022/09/21 03:41:26;;;;;;;0.50;0.10;;;8.80;90.60;;;;;;4835202;29;20057;-85
2022/09/21 03:43:53;;;;;;;0.52;0.10;;;8.70;90.60;;;;;;4817278;29;20141;-85
2022/09/21 03:46:20;;;;;;;0.00;0.00;;;8.70;90.70;;;;;;4846831;29;20058;-86
2022/09/21 03:48:47;;;;;;;0.55;0.03;;;8.70;90.70;;;;;;4868561;29;20060;-85
2022/09/21 03:51:14;;;;;;;0.20;0.10;;;8.70;90.70;;;;;;4850522;29;20045;-86
2022/09/21 03:53:41;;;;;;;0.75;0.10;;;8.60;90.70;;;;;;4860460;29;20107;-85
2022/09/21 03:56:08;;;;;;;0.20;0.10;;;8.60;90.80;;;;;;4834790;29;20093;-86
2022/09/21 03:58:36;;;;;;;0.13;0.00;;;8.60;90.80;;;;;;4850418;29;20120;-85
2022/09/21 04:01:03;;;;;;;0.08;0.00;;;8.60;90.80;;;;;;4831468;29;20057;-86
2022/09/21 04:03:37;;;;;;;0.20;0.10;;;8.60;90.80;;;;;;4830463;29;20044;-87
2022/09/21 04:06:10;;;;;;;0.10;0.00;;;8.50;90.70;;;;;;4842441;29;20048;-85
2022/09/21 04:08:38;;;;;;;0.73;0.00;;;8.50;90.70;;;;;;4861112;29;20104;-86
2022/09/21 04:11:13;;;;;;;0.22;0.10;;;8.50;90.80;;;;;;4883476;29;20064;-85
2022/09/21 04:13:44;;;;;;;0.28;0.00;;;8.50;90.80;;;;;;4874232;29;20084;-85
2022/09/21 04:16:11;;;;;;;0.08;0.00;;;8.40;91.10;;;;;;4864832;29;20053;-86
2022/09/21 04:18:38;;;;;;;0.22;0.05;;;8.50;90.80;;;;;;4861888;29;20049;-85
2022/09/21 04:21:05;;;;;;;0.30;0.00;;;8.40;90.80;;;;;;4852104;29;20053;-85
2022/09/21 04:23:32;;;;;;;0.73;0.25;;;8.40;90.80;;;;;;4855459;29;20140;-85
2022/09/21 04:25:59;;;;;;;0.10;0.00;;;8.40;90.80;;;;;;4847502;29;20144;-85
2022/09/21 04:28:26;;;;;;;1.45;0.10;;;8.40;90.90;;;;;;4854583;29;20056;-86
2022/09/21 04:30:54;;;;;;;0.30;0.10;;;8.40;90.90;;;;;;4834343;29;20053;-87
2022/09/21 04:33:22;;;;;;;0.22;0.10;;;8.30;91.10;;;;;;4833753;29;20137;-85
2022/09/21 04:35:56;;;;;;;0.47;0.10;;;8.30;90.90;;;;;;4831123;29;20053;-85
2022/09/21 04:38:40;;;;;;;0.38;0.10;;;8.30;90.90;;;;;;4888965;29;20061;-84
2022/09/21 04:41:14;;;;;;;1.75;0.10;;;8.20;90.90;;;;;;4842032;29;20053;-85
2022/09/21 04:43:43;;;;;;;0.60;0.10;;;8.20;91.00;;;;;;4835713;29;20055;-86
2022/09/21 04:46:16;;;;;;;0.38;0.10;;;8.20;91.00;;;;;;4864548;29;20052;-86
2022/09/21 04:48:45;;;;;;;0.20;0.10;;;8.20;91.00;;;;;;4870607;29;20049;-86
2022/09/21 04:51:15;;;;;;;0.40;0.10;;;8.20;91.00;;;;;;4855178;29;20442;-85
2022/09/21 04:53:43;;;;;;;2.92;0.10;;;8.10;91.00;;;;;;4834017;29;20060;-86
2022/09/21 04:56:13;;;;;;;0.30;0.13;;;8.10;91.00;;;;;;4864666;29;20112;-85
2022/09/21 04:58:40;;;;;;;0.13;0.10;;;8.10;91.00;;;;;;4870535;29;20125;-86
2022/09/21 05:01:08;;;;;;;0.05;0.00;;;8.10;91.00;;;;;;4864278;29;20053;-85
2022/09/21 05:03:35;;;;;;;0.40;0.00;;;8.10;91.00;;;;;;4882437;29;20147;-85
2022/09/21 05:06:03;;;;;;;0.28;0.10;;;8.10;91.00;;;;;;4862604;29;20052;-86
2022/09/21 05:11:18;;;;;;;0.30;0.10;;;8.10;91.00;;;;;;4850963;29;20474;-85
2022/09/21 05:13:45;;;;;;;0.40;0.10;;;8.00;91.00;;;;;;4854126;29;20084;-84
2022/09/21 05:16:15;;;;;;;0.30;0.20;;;8.00;91.00;;;;;;4855539;29;20045;-87
2022/09/21 05:18:43;;;;;;;0.82;0.13;;;8.00;91.00;;;;;;4839351;29;20140;-86
2022/09/21 05:21:14;;;;;;;0.10;0.00;;;8.00;91.00;;;;;;4830582;29;20056;-87
2022/09/21 05:23:41;;;;;;;0.43;0.10;;;8.00;91.00;;;;;;4830483;29;20041;-85
2022/09/21 05:26:08;;;;;;;0.38;0.10;;;8.00;91.00;;;;;;4817572;29;20051;-85
2022/09/21 05:28:35;;;;;;;0.13;0.10;;;8.00;91.10;;;;;;4870841;29;20488;-86
2022/09/21 05:31:26;;;;;;;0.20;0.00;;;8.00;91.10;;;;;;4845384;29;20059;-87
2022/09/21 05:34:11;;;;;;;0.40;0.10;;;8.00;91.00;;;;;;4867912;29;20053;-88
2022/09/21 05:36:52;;;;;;;2.53;0.10;;;8.00;91.00;;;;;;4882556;29;20056;-87
2022/09/21 05:39:20;;;;;;;0.32;0.10;;;8.00;91.00;;;;;;4855936;29;20048;-86
2022/09/21 05:41:47;;;;;;;0.43;0.10;;;7.90;91.00;;;;;;4853946;29;20048;-85
2022/09/21 05:44:14;;;;;;;0.40;0.10;;;8.00;91.00;;;;;;4840989;29;20063;-86
2022/09/21 05:47:04;;;;;;;0.10;0.10;;;8.00;91.00;;;;;;4842207;29;20041;-86
2022/09/21 05:49:55;;;;;;;0.10;0.08;;;8.00;91.00;;;;;;4873980;29;20406;-86
2022/09/21 05:52:28;;;;;;;0.52;0.10;;;8.00;91.00;;;;;;4851631;29;20112;-85
2022/09/21 05:55:07;;;;;;;0.43;0.10;;;8.00;91.00;;;;;;4857904;29;20104;-85
2022/09/21 05:57:51;;;;;;;0.15;0.10;;;8.00;91.00;;;;;;4871670;29;20052;-85
2022/09/21 06:00:21;;;;;;;1.40;0.30;;;8.00;91.00;;;;;;4865965;29;20450;-86
2022/09/21 06:02:54;;;;;;;1.00;0.10;;;8.00;91.00;;;;;;4881917;29;20045;-85
2022/09/21 06:05:21;;;;;;;0.22;0.10;;;8.10;90.90;;;;;;4869304;29;20502;-86
2022/09/21 06:07:48;;;;;;;0.47;0.10;;;8.10;90.90;;;;;;4847776;29;20049;-86
2022/09/21 06:10:15;;;;;;;0.40;0.10;;;8.10;90.90;;;;;;4847836;29;20057;-85
2022/09/21 06:12:43;;;;;;;0.40;0.10;;;8.20;90.90;;;;;;4862999;29;20045;-85
2022/09/21 06:15:13;;;;;;;0.38;0.10;;;8.30;90.80;;;;;;4856744;29;20100;-85
2022/09/21 06:17:40;;;;;;;0.38;0.10;;;8.40;90.80;;;;;;4878675;29;20049;-84
2022/09/21 06:20:08;;;;;;;0.98;0.10;;;8.40;90.70;;;;;;4848140;29;20125;-84
2022/09/21 06:22:35;;;;;;;0.93;0.10;;;8.50;90.60;;;;;;4859071;29;20041;-85
2022/09/21 06:25:02;;;;;;;0.93;0.20;;;8.60;90.60;;;;;;4854559;29;20045;-85
2022/09/21 06:27:29;;;;;;;0.30;0.10;;;8.70;90.60;;;;;;4857462;29;20101;-85
2022/09/21 06:29:56;;;;;;;0.50;0.20;;;8.70;90.50;;;;;;4851576;29;20132;-84
2022/09/21 06:32:23;;;;;;;0.35;0.10;;;8.80;90.50;;;;;;4851757;29;20070;-85
2022/09/21 06:34:50;;;;;;;0.77;0.10;;;8.90;90.50;;;;;;4825200;29;20439;-85
2022/09/21 06:37:17;;;;;;;2.10;0.13;;;8.90;90.40;;;;;;4848075;29;20049;-84
2022/09/21 06:39:44;;;;;;;0.75;0.20;;;9.00;90.40;;;;;;4851382;29;20053;-84
2022/09/21 06:42:11;;;;;;;0.68;0.25;;;9.20;90.70;;;;;;4866635;29;20044;-84
2022/09/21 06:44:40;;;;;;;0.10;0.10;;;9.20;90.30;;;;;;4856941;29;20052;-83
2022/09/21 06:47:07;;;;;;;0.40;0.17;;;9.40;90.30;;;;;;4862119;29;20045;-83
2022/09/21 06:49:34;;;;;;;0.63;0.20;;;9.50;90.20;;;;;;4835255;29;20139;-84
2022/09/21 06:52:07;;;;;;;0.82;0.25;;;9.60;90.20;;;;;;4838706;29;20415;-84
2022/09/21 06:54:35;;;;;;;0.43;0.10;;;9.70;90.10;;;;;;4855400;29;20113;-84
2022/09/21 06:57:02;;;;;;;0.50;0.22;;;9.80;90.10;;;;;;4857610;29;20080;-83
2022/09/21 06:59:29;;;;;;;1.15;0.30;;;9.90;90.00;;;;;;4849971;29;20483;-84
2022/09/21 07:01:57;;;;;;;2.10;0.40;;;10.00;90.00;;;;;;4837996;29;20570;-83
2022/09/21 07:04:24;;;;;;;1.38;0.45;;;10.10;89.90;;;;;;4880746;29;20041;-84
2022/09/21 07:06:51;;;;;;;1.08;0.32;;;10.10;89.80;;;;;;4862543;29;20044;-84
2022/09/21 07:09:18;;;;;;;1.38;0.30;;;10.20;89.80;;;;;;4862861;29;20076;-84
2022/09/21 07:12:07;;;;;;;1.30;0.28;;;10.30;89.70;;;;;;4852601;29;20051;-84
2022/09/21 07:14:34;;;;;;;2.05;0.30;;;10.40;89.60;;;;;;4864616;29;20063;-84
2022/09/21 07:17:01;;;;;;;1.55;0.40;;;10.50;89.60;;;;;;4858080;29;20113;-83
2022/09/21 07:19:28;;;;;;;1.58;0.40;;;10.50;89.50;;;;;;4862682;29;20073;-83
2022/09/21 07:21:55;;;;;;;2.97;0.55;;;10.60;89.50;;;;;;4841370;29;20049;-84
2022/09/21 07:24:22;;;;;;;3.13;0.60;;;10.70;89.50;;;;;;4836762;29;20521;-83
2022/09/21 07:26:49;;;;;;;2.08;0.55;;;10.70;89.40;;;;;;4883268;29;20071;-83
2022/09/21 07:29:16;;;;;;;1.77;0.45;;;10.80;89.40;;;;;;4864933;29;20059;-83
2022/09/21 07:31:43;;;;;;;4.25;1.05;;;10.90;89.40;;;;;;4837257;29;20057;-84
2022/09/21 07:34:10;;;;;;;3.45;0.77;;;10.90;89.30;;;;;;4865418;29;20499;-85
2022/09/21 07:36:37;;;;;;;1.67;0.47;;;11.00;89.30;;;;;;4847519;29;20053;-84
2022/09/21 07:39:05;;;;;;;3.85;0.50;;;11.10;89.30;;;;;;4848047;29;20505;-83
2022/09/21 07:41:32;;;;;;;4.53;0.47;;;11.10;89.20;;;;;;4883364;29;20048;-83
2022/09/21 07:43:59;;;;;;;5.70;0.80;;;11.20;89.30;;;;;;4864712;29;20557;-83
2022/09/21 07:46:26;;;;;;;2.33;1.10;;;11.20;89.20;;;;;;4836451;29;20045;-83
2022/09/21 07:48:56;;;;;;;3.75;1.00;;;11.30;89.20;;;;;;4883636;29;20044;-83
2022/09/21 07:51:23;;;;;;;3.10;0.65;;;11.30;89.10;;;;;;4869937;29;20139;-84
2022/09/21 07:53:55;;;;;;;2.53;0.52;;;11.40;89.10;;;;;;4856970;29;20120;-83
2022/09/21 07:56:23;;;;;;;2.37;0.43;;;11.50;89.00;;;;;;4871635;29;20549;-84
2022/09/21 07:59:06;;;;;;;4.32;0.80;;;11.60;88.90;;;;;;4849557;29;20297;-84
2022/09/21 08:01:38;;;;;;;3.08;0.68;;;11.60;88.80;;;;;;4841756;29;20131;-84
2022/09/21 08:04:10;;;;;;;2.60;0.70;;;11.70;88.80;;;;;;4843833;29;20041;-84
2022/09/21 08:06:38;;;;;;;4.07;0.77;;;11.70;88.70;;;;;;4849288;29;20048;-84
2022/09/21 08:09:07;;;;;;;3.83;0.80;;;11.80;88.60;;;;;;4864376;29;20052;-84
2022/09/21 08:11:36;;;;;;;3.33;1.00;;;11.80;88.50;;;;;;4875069;29;20053;-83
2022/09/21 08:14:03;;;;;;;3.20;0.65;;;11.90;88.50;;;;;;4857433;29;20053;-83
2022/09/21 08:16:32;;;;;;;2.88;0.60;;;12.00;88.40;;;;;;4864243;29;20049;-84
2022/09/21 08:19:01;;;;;;;3.95;1.10;;;12.00;88.40;;;;;;4864201;29;20494;-84
2022/09/21 08:21:28;;;;;;;2.67;0.98;;;12.10;88.40;;;;;;4851254;29;20059;-83
2022/09/21 08:23:56;;;;;;;2.70;0.63;;;12.10;88.30;;;;;;4830852;29;20049;-83
2022/09/21 08:26:23;;;;;;;5.07;0.80;;;12.20;88.30;;;;;;4847301;29;20120;-84
2022/09/21 08:28:52;;;;;;;2.80;0.60;;;12.20;88.20;;;;;;4849073;29;20045;-83
2022/09/21 08:31:20;;;;;;;3.28;0.70;;;12.30;88.20;;;;;;4866499;29;20041;-84
2022/09/21 08:33:48;;;;;;;2.15;0.55;;;12.30;88.10;;;;;;4879053;29;20060;-85
2022/09/21 08:36:16;;;;;;;2.42;0.80;;;12.40;88.10;;;;;;4867423;29;20139;-83
2022/09/21 08:38:44;;;;;;;2.83;1.02;;;12.40;88.10;;;;;;4856424;29;20096;-83
2022/09/21 08:41:21;;;;;;;1.73;0.57;;;12.40;88.00;;;;;;4858243;29;20139;-83
2022/09/21 08:44:03;;;;;;;4.55;0.70;;;12.50;88.00;;;;;;4846138;29;20148;-83
2022/09/21 08:46:33;;;;;;;3.28;0.80;;;12.60;87.70;;;;;;4841792;29;20041;-83
2022/09/21 08:49:04;;;;;;;1.98;0.60;;;12.60;87.60;;;;;;4868654;29;20053;-84
2022/09/21 08:51:35;;;;;;;2.60;0.60;;;12.60;87.60;;;;;;4863694;29;20085;-83
2022/09/21 08:54:21;;;;;;;3.70;0.60;;;12.70;87.60;;;;;;4854016;29;20144;-84
2022/09/21 08:56:49;;;;;;;0.93;0.30;;;12.70;87.50;;;;;;4863488;29;20053;-84
2022/09/21 08:59:31;;;;;;;1.38;0.43;;;12.70;87.50;;;;;;4858592;29;20072;-83
2022/09/21 09:02:16;;;;;;;1.10;0.50;;;12.80;87.50;;;;;;4843443;29;20053;-83
2022/09/21 09:04:52;;;;;;;1.38;0.35;;;12.90;87.40;;;;;;4852347;29;20045;-84
2022/09/21 09:07:48;;;;;;;2.25;0.60;;;12.90;87.20;;;;;;4877805;29;20140;-86
2022/09/21 09:10:18;;;;;;;1.80;0.40;;;12.90;87.10;;;;;;4838284;29;20053;-86
2022/09/21 09:12:48;;;;;;;1.95;0.50;;;13.00;87.10;;;;;;4859516;29;20116;-85
2022/09/21 09:15:33;;;;;;;1.50;0.60;;;13.10;87.00;;;;;;4871460;29;20055;-84
2022/09/21 09:18:03;;;;;;;1.25;0.40;;;13.10;86.90;;;;;;4882175;29;20144;-85
2022/09/21 09:20:52;;;;;;;1.52;0.50;;;13.20;87.10;;;;;;4881896;29;20056;-86
2022/09/21 09:23:33;;;;;;;3.22;0.77;;;13.20;86.80;;;;;;4866910;29;20128;-86
2022/09/21 09:26:18;;;;;;;1.92;0.52;;;13.30;86.70;;;;;;4848568;29;20049;-84
2022/09/21 09:29:05;;;;;;;1.45;0.40;;;13.30;87.10;;;;;;4872738;29;20053;-85
2022/09/21 09:31:34;;;;;;;1.20;0.40;;;13.30;86.40;;;;;;4857146;29;20055;-85
2022/09/21 09:34:10;;;;;;;1.88;0.30;;;13.40;86.30;;;;;;4860161;29;20046;-85
2022/09/21 09:36:42;;;;;;;2.50;0.40;;;13.40;86.20;;;;;;4844702;29;20125;-85
2022/09/21 09:39:28;;;;;;;1.35;0.40;;;13.40;86.10;;;;;;4862228;29;20061;-83
2022/09/21 09:42:20;;;;;;;0.93;0.30;;;13.50;86.10;;;;;;4850123;29;20133;-83
2022/09/21 09:45:05;;;;;;;1.10;0.30;;;13.50;85.80;;;;;;4862480;29;20076;-83
2022/09/21 09:47:58;;;;;;;0.95;0.20;;;13.60;85.70;;;;;;4849220;29;20117;-84
2022/09/21 09:50:32;;;;;;;1.50;0.50;;;13.60;85.40;;;;;;4868621;29;20060;-84
2022/09/21 09:53:10;;;;;;;2.92;0.45;;;13.70;85.40;;;;;;4847356;29;20144;-84
2022/09/21 09:55:42;;;;;;;3.40;0.70;;;13.80;85.20;;;;;;4877669;29;20061;-84
2022/09/21 09:58:19;;;;;;;2.30;0.50;;;13.90;85.10;;;;;;4866217;29;20132;-86
2022/09/21 10:00:52;;;;;;;3.53;0.30;;;14.00;84.80;;;;;;4890626;29;20091;-85
2022/09/21 10:03:23;;;;;;;1.73;0.52;;;14.10;85.30;;;;;;4896319;29;20052;-85
2022/09/21 10:05:50;;;;;;;4.65;0.30;;;14.20;84.50;;;;;;4890363;29;20455;-85
2022/09/21 10:08:43;;;;;;;2.80;0.77;;;14.30;84.30;;;;;;4866155;29;20060;-85
2022/09/21 10:11:12;;;;;;;5.20;0.80;;;14.40;83.70;;;;;;4895621;29;20126;-84
2022/09/21 10:13:46;;;;;;;2.17;0.60;;;14.40;83.60;;;;;;4883650;29;20072;-85
2022/09/21 10:16:19;;;;;;;3.38;0.52;;;14.50;83.40;;;;;;4896886;29;20147;-86
2022/09/21 10:18:50;;;;;;;1.10;0.47;;;14.60;83.30;;;;;;4881260;29;20437;-86
2022/09/21 10:21:23;;;;;;;2.53;0.77;;;14.60;83.20;;;;;;4892017;29;20545;-83
2022/09/21 10:23:58;;;;;;;3.08;0.52;;;14.70;83.10;;;;;;4881416;29;20049;-86
2022/09/21 10:26:45;;;;;;;3.72;0.63;;;14.80;82.40;;;;;;4880823;29;20048;-84
2022/09/21 10:29:24;;;;;;;3.35;0.70;;;14.90;81.30;;;;;;4884817;29;20085;-86
2022/09/21 10:31:57;;;;;;;1.42;0.40;;;15.00;81.20;;;;;;4881399;29;20055;-86
2022/09/21 10:34:26;;;;;;;2.17;0.57;;;15.00;81.30;;;;;;4880975;29;20071;-86
2022/09/21 10:36:56;;;;;;;1.73;0.50;;;15.00;81.40;;;;;;4879754;29;20053;-86
2022/09/21 10:39:29;;;;;;;1.55;0.30;;;15.10;81.60;;;;;;4892639;29;20044;-86
2022/09/21 10:42:01;;;;;;;1.75;0.38;;;15.10;81.20;;;;;;4895807;29;20489;-86
2022/09/21 10:44:48;;;;;;;1.30;0.30;;;15.20;80.90;;;;;;4890248;29;20080;-83
2022/09/21 10:47:35;;;;;;;3.17;0.50;;;15.30;80.10;;;;;;4869623;29;20140;-82
2022/09/21 10:50:27;;;;;;;3.38;0.43;;;15.40;79.50;;;;;;4880480;29;20509;-83
2022/09/21 10:53:06;;;;;;;1.10;0.40;;;15.50;79.10;;;;;;4877785;29;20056;-82
2022/09/21 10:55:38;;;;;;;2.15;0.30;;;15.60;78.90;;;;;;4887729;29;20437;-85
2022/09/21 10:58:19;;;;;;;2.05;0.32;;;15.70;78.40;;;;;;4881168;29;20087;-86
2022/09/21 11:00:50;;;;;;;2.17;0.32;;;15.90;78.10;;;;;;4862679;29;20057;-86
2022/09/21 11:03:46;;;;;;;0.88;0.30;;;16.00;77.70;;;;;;4862955;29;20130;-85
2022/09/21 11:06:43;;;;;;;2.58;0.20;;;16.10;77.10;;;;;;4884522;29;20045;-85
2022/09/21 11:09:17;;;;;;;2.42;0.30;;;16.30;77.00;;;;;;4874583;29;20105;-86
2022/09/21 11:12:26;;;;;;;2.05;0.30;;;16.40;76.50;;;;;;4884612;29;20501;-86
2022/09/21 11:15:18;;;;;;;1.15;0.25;;;16.50;76.30;;;;;;4845529;29;20048;-86
2022/09/21 11:18:33;;;;;;;4.70;0.20;;;16.60;76.30;;;;;;4887837;29;20493;-85
2022/09/21 11:21:35;;;;;;;1.73;0.20;;;16.70;76.30;;;;;;4887451;29;20048;-86
2022/09/21 11:24:45;;;;;;;1.27;0.15;;;16.90;76.20;;;;;;4868346;29;20050;-86
2022/09/21 11:27:22;;;;;;;0.20;0.10;;;17.10;75.90;;;;;;4841301;29;20060;-85
2022/09/21 11:30:15;;;;;;;0.55;0.20;;;17.20;75.70;;;;;;4874166;29;20080;-84
2022/09/21 11:33:14;;;;;;;3.42;0.15;;;17.40;74.80;;;;;;4898274;29;20055;-83
2022/09/21 11:36:22;;;;;;;0.98;0.10;;;17.50;74.60;;;;;;4877601;29;20055;-81
2022/09/21 11:39:27;;;;;;;1.00;0.10;;;17.60;73.90;;;;;;4876341;29;20048;-84
2022/09/21 11:41:54;;;;;;;1.98;0.10;;;17.80;73.80;;;;;;4881412;29;20063;-85
2022/09/21 11:44:47;;;;;;;1.33;0.10;;;17.80;73.80;;;;;;4849477;29;20080;-83
2022/09/21 11:48:02;;;;;;;0.47;0.20;;;17.90;73.30;;;;;;4878728;29;20044;-84
2022/09/21 11:50:45;;;;;;;1.80;0.20;;;17.90;73.10;;;;;;4858684;29;20055;-82
2022/09/21 11:53:45;;;;;;;0.32;0.10;;;18.00;72.90;;;;;;4892358;29;20186;-82
2022/09/21 11:56:24;;;;;;;1.10;0.20;;;18.00;72.30;;;;;;4860038;29;20044;-83
2022/09/21 11:59:02;;;;;;;1.45;0.10;;;17.90;72.00;;;;;;4893677;29;20135;-84
2022/09/21 12:01:33;;;;;;;1.27;0.10;;;17.80;72.20;;;;;;4868940;29;20060;-82
2022/09/21 12:04:19;;;;;;;1.20;0.10;;;17.80;72.30;;;;;;4885061;29;20557;-83
2022/09/21 12:07:07;;;;;;;1.15;0.10;;;17.80;71.40;;;;;;4898560;29;20040;-83
2022/09/21 12:09:58;;;;;;;2.20;0.28;;;17.70;71.30;;;;;;4881963;29;20452;-84
2022/09/21 12:12:37;;;;;;;1.42;0.20;;;17.70;71.50;;;;;;4885626;29;20462;-83
2022/09/21 12:15:17;;;;;;;0.50;0.10;;;17.60;71.50;;;;;;4892925;29;20569;-83
2022/09/21 12:17:52;;;;;;;1.67;0.17;;;17.60;71.40;;;;;;4892904;29;20052;-82
2022/09/21 12:20:38;;;;;;;0.95;0.10;;;17.50;71.60;;;;;;4873540;29;20112;-89
2022/09/21 12:23:18;;;;;;;2.63;0.10;;;17.60;71.40;;;;;;4886105;29;20053;-87
2022/09/21 12:25:50;;;;;;;0.55;0.15;;;17.60;71.30;;;;;;4885427;29;20086;-83
2022/09/21 12:28:51;;;;;;;0.28;0.10;;;17.60;71.30;;;;;;4888216;29;20036;-84
2022/09/21 12:31:36;;;;;;;0.43;0.10;;;17.60;71.10;;;;;;4883339;29;20049;-83
2022/09/21 12:34:20;;;;;;;2.83;0.20;;;17.50;70.90;;;;;;4881986;29;20069;-84
2022/09/21 12:36:50;;;;;;;4.38;0.20;;;17.50;70.80;;;;;;4847727;29;20147;-83
2022/09/21 12:39:27;;;;;;;1.50;0.20;;;17.60;70.70;;;;;;4884129;29;20040;-82
2022/09/21 12:42:02;;;;;;;0.88;0.20;;;17.60;70.40;;;;;;4868870;29;20053;-84
2022/09/21 12:44:51;;;;;;;2.72;0.20;;;17.70;70.00;;;;;;4872668;29;20095;-83
2022/09/21 12:47:46;;;;;;;1.60;0.20;;;17.90;69.40;;;;;;4873594;29;20135;-84
2022/09/21 12:50:23;;;;;;;0.35;0.10;;;17.90;68.60;;;;;;4850018;29;20501;-82
2022/09/21 12:52:52;;;;;;;0.38;0.10;;;17.90;69.00;;;;;;4865680;29;20109;-83
2022/09/21 12:55:47;;;;;;;0.77;0.10;;;17.90;68.30;;;;;;4889784;29;20068;-81
2022/09/21 12:58:57;;;;;;;1.80;0.10;;;17.90;67.70;;;;;;4890900;29;20235;-82
2022/09/21 13:01:48;;;;;;;2.75;0.17;;;17.90;68.00;;;;;;4877210;29;20075;-83
2022/09/21 13:04:43;;;;;;;0.20;0.00;;;17.70;68.10;;;;;;4895624;29;20462;-83
2022/09/21 13:07:38;;;;;;;1.15;0.10;;;17.60;68.70;;;;;;4870994;29;20076;-83
2022/09/21 13:10:31;;;;;;;1.20;0.10;;;17.60;68.70;;;;;;4882941;29;20414;-83
2022/09/21 13:13:01;;;;;;;0.25;0.00;;;17.60;68.80;;;;;;4874041;29;20052;-85
2022/09/21 13:16:00;;;;;;;3.15;0.82;;;17.50;69.00;;;;;;4884458;29;20104;-83
2022/09/21 13:18:34;;;;;;;0.63;0.10;;;17.50;68.80;;;;;;4862449;29;20048;-83
2022/09/21 13:21:28;;;;;;;1.13;0.17;;;17.50;68.60;;;;;;4884330;29;20052;-83
2022/09/21 13:24:02;;;;;;;0.50;0.10;;;17.40;68.50;;;;;;4896750;29;20040;-82
2022/09/21 13:27:06;;;;;;;1.02;0.10;;;17.30;68.60;;;;;;4861723;29;20044;-83
2022/09/21 13:30:18;;;;;;;0.63;0.10;;;17.20;68.60;;;;;;4815145;29;20089;-83
2022/09/21 13:32:53;;;;;;;0.40;0.10;;;17.10;68.90;;;;;;4881290;29;20473;-82
2022/09/21 13:35:51;;;;;;;1.42;0.10;;;17.20;69.00;;;;;;4871296;29;20471;-84
2022/09/21 13:38:43;;;;;;;0.50;0.10;;;17.20;68.80;;;;;;4885450;29;20479;-84